sensor_id;sensor_type;location;lat;lon;timestamp;P1;durP1;ratioP1;P2;durP2;ratioP2
48363;SDS011;34170;54.364;18.582;2022-08-04T00:08:33;3.42;;;1.70;;
48363;SDS011;34170;54.364;18.582;2022-08-04T00:11:06;4.82;;;2.03;;
48363;SDS011;34170;54.364;18.582;2022-08-04T00:13:41;4.07;;;1.73;;
48363;SDS011;34170;54.364;18.582;2022-08-04T00:16:31;4.55;;;1.77;;
48363;SDS011;34170;54.364;18.582;2022-08-04T00:19:11;4.60;;;2.38;;
48363;SDS011;34170;54.364;18.582;2022-08-04T00:21:41;3.20;;;2.00;;
48363;SDS011;34170;54.364;18.582;2022-08-04T00:24:17;6.78;;;2.30;;
48363;SDS011;34170;54.364;18.582;2022-08-04T00:26:48;4.45;;;2.08;;
48363;SDS011;34170;54.364;18.582;2022-08-04T00:29:20;7.00;;;2.35;;
48363;SDS011;34170;54.364;18.582;2022-08-04T00:31:48;4.03;;;2.10;;
48363;SDS011;34170;54.364;18.582;2022-08-04T00:34:26;5.57;;;1.92;;
48363;SDS011;34170;54.364;18.582;2022-08-04T00:36:56;4.63;;;2.15;;
48363;SDS011;34170;54.364;18.582;2022-08-04T00:39:24;3.67;;;1.95;;
48363;SDS011;34170;54.364;18.582;2022-08-04T00:41:57;4.10;;;2.20;;
48363;SDS011;34170;54.364;18.582;2022-08-04T00:47:52;4.90;;;1.60;;
48363;SDS011;34170;54.364;18.582;2022-08-04T00:50:51;6.65;;;2.33;;
48363;SDS011;34170;54.364;18.582;2022-08-04T00:53:31;8.82;;;2.33;;
48363;SDS011;34170;54.364;18.582;2022-08-04T00:59:33;4.68;;;2.08;;
48363;SDS011;34170;54.364;18.582;2022-08-04T01:02:50;2.20;;;2.00;;
48363;SDS011;34170;54.364;18.582;2022-08-04T01:05:04;6.07;;;2.08;;
48363;SDS011;34170;54.364;18.582;2022-08-04T01:16:34;4.22;;;1.80;;
48363;SDS011;34170;54.364;18.582;2022-08-04T01:19:24;4.55;;;2.08;;
48363;SDS011;34170;54.364;18.582;2022-08-04T01:30:54;3.00;;;1.73;;
48363;SDS011;34170;54.364;18.582;2022-08-04T01:33:24;3.80;;;1.73;;
48363;SDS011;34170;54.364;18.582;2022-08-04T01:35:58;4.00;;;1.98;;
48363;SDS011;34170;54.364;18.582;2022-08-04T01:38:34;4.20;;;2.30;;
48363;SDS011;34170;54.364;18.582;2022-08-04T01:41:03;3.15;;;1.58;;
48363;SDS011;34170;54.364;18.582;2022-08-04T01:43:40;5.82;;;1.98;;
48363;SDS011;34170;54.364;18.582;2022-08-04T01:46:11;3.80;;;2.03;;
48363;SDS011;34170;54.364;18.582;2022-08-04T01:48:45;3.10;;;2.00;;
48363;SDS011;34170;54.364;18.582;2022-08-04T01:51:13;3.20;;;1.65;;
48363;SDS011;34170;54.364;18.582;2022-08-04T01:53:42;2.60;;;2.10;;
48363;SDS011;34170;54.364;18.582;2022-08-04T01:56:10;6.15;;;2.25;;
48363;SDS011;34170;54.364;18.582;2022-08-04T01:58:38;3.30;;;2.00;;
48363;SDS011;34170;54.364;18.582;2022-08-04T02:01:08;3.22;;;1.70;;
48363;SDS011;34170;54.364;18.582;2022-08-04T02:03:41;2.75;;;2.17;;
48363;SDS011;34170;54.364;18.582;2022-08-04T02:06:39;3.65;;;2.00;;
48363;SDS011;34170;54.364;18.582;2022-08-04T02:12:34;3.83;;;1.77;;
48363;SDS011;34170;54.364;18.582;2022-08-04T02:15:29;4.40;;;2.10;;
48363;SDS011;34170;54.364;18.582;2022-08-04T02:18:18;5.32;;;2.03;;
48363;SDS011;34170;54.364;18.582;2022-08-04T02:20:54;5.32;;;2.03;;
48363;SDS011;34170;54.364;18.582;2022-08-04T02:23:30;3.80;;;2.05;;
48363;SDS011;34170;54.364;18.582;2022-08-04T02:26:24;4.53;;;2.30;;
48363;SDS011;34170;54.364;18.582;2022-08-04T02:29:12;3.45;;;2.00;;
48363;SDS011;34170;54.364;18.582;2022-08-04T02:31:52;4.70;;;2.17;;
48363;SDS011;34170;54.364;18.582;2022-08-04T02:37:02;5.03;;;2.08;;
48363;SDS011;34170;54.364;18.582;2022-08-04T02:39:32;3.60;;;2.08;;
48363;SDS011;34170;54.364;18.582;2022-08-04T02:42:15;3.33;;;2.58;;
48363;SDS011;34170;54.364;18.582;2022-08-04T02:44:52;4.60;;;2.03;;
48363;SDS011;34170;54.364;18.582;2022-08-04T02:47:24;4.32;;;2.10;;
48363;SDS011;34170;54.364;18.582;2022-08-04T02:50:14;3.88;;;2.38;;
48363;SDS011;34170;54.364;18.582;2022-08-04T02:52:55;5.10;;;2.35;;
48363;SDS011;34170;54.364;18.582;2022-08-04T02:55:27;2.88;;;2.10;;
48363;SDS011;34170;54.364;18.582;2022-08-04T02:57:56;3.85;;;2.05;;
48363;SDS011;34170;54.364;18.582;2022-08-04T03:00:25;6.95;;;2.58;;
48363;SDS011;34170;54.364;18.582;2022-08-04T03:02:54;2.75;;;2.10;;
48363;SDS011;34170;54.364;18.582;2022-08-04T03:11:24;4.53;;;2.67;;
48363;SDS011;34170;54.364;18.582;2022-08-04T03:25:44;5.35;;;2.90;;
48363;SDS011;34170;54.364;18.582;2022-08-04T03:28:29;3.83;;;2.45;;
48363;SDS011;34170;54.364;18.582;2022-08-04T03:57:33;8.57;;;3.45;;
48363;SDS011;34170;54.364;18.582;2022-08-04T04:00:30;4.40;;;2.72;;
48363;SDS011;34170;54.364;18.582;2022-08-04T04:12:21;4.32;;;3.45;;
48363;SDS011;34170;54.364;18.582;2022-08-04T04:15:18;5.82;;;3.58;;
48363;SDS011;34170;54.364;18.582;2022-08-04T04:18:11;13.40;;;3.50;;
48363;SDS011;34170;54.364;18.582;2022-08-04T04:35:36;4.65;;;3.28;;
48363;SDS011;34170;54.364;18.582;2022-08-04T04:38:33;9.15;;;3.95;;
48363;SDS011;34170;54.364;18.582;2022-08-04T04:44:19;12.60;;;3.92;;
48363;SDS011;34170;54.364;18.582;2022-08-04T04:52:19;5.65;;;4.15;;
48363;SDS011;34170;54.364;18.582;2022-08-04T04:55:03;8.95;;;4.63;;
48363;SDS011;34170;54.364;18.582;2022-08-04T04:57:51;16.80;;;4.75;;
48363;SDS011;34170;54.364;18.582;2022-08-04T05:00:22;6.28;;;4.05;;
48363;SDS011;34170;54.364;18.582;2022-08-04T05:03:31;7.97;;;4.28;;
48363;SDS011;34170;54.364;18.582;2022-08-04T05:08:52;7.47;;;4.25;;
48363;SDS011;34170;54.364;18.582;2022-08-04T05:14:19;6.50;;;4.20;;
48363;SDS011;34170;54.364;18.582;2022-08-04T05:17:24;9.93;;;4.28;;
48363;SDS011;34170;54.364;18.582;2022-08-04T05:20:07;9.30;;;4.32;;
48363;SDS011;34170;54.364;18.582;2022-08-04T05:25:20;6.97;;;4.30;;
48363;SDS011;34170;54.364;18.582;2022-08-04T05:28:17;9.18;;;4.32;;
48363;SDS011;34170;54.364;18.582;2022-08-04T05:30:50;7.47;;;4.38;;
48363;SDS011;34170;54.364;18.582;2022-08-04T05:33:25;10.93;;;3.95;;
48363;SDS011;34170;54.364;18.582;2022-08-04T05:35:59;9.00;;;6.57;;
48363;SDS011;34170;54.364;18.582;2022-08-04T05:38:52;9.13;;;4.57;;
48363;SDS011;34170;54.364;18.582;2022-08-04T05:41:26;9.57;;;4.68;;
48363;SDS011;34170;54.364;18.582;2022-08-04T05:44:13;11.20;;;4.30;;
48363;SDS011;34170;54.364;18.582;2022-08-04T05:46:43;12.40;;;4.20;;
48363;SDS011;34170;54.364;18.582;2022-08-04T05:49:24;11.43;;;4.57;;
48363;SDS011;34170;54.364;18.582;2022-08-04T05:51:54;13.20;;;4.75;;
48363;SDS011;34170;54.364;18.582;2022-08-04T05:54:33;13.38;;;4.18;;
48363;SDS011;34170;54.364;18.582;2022-08-04T05:57:04;10.18;;;4.28;;
48363;SDS011;34170;54.364;18.582;2022-08-04T05:59:34;14.65;;;3.65;;
48363;SDS011;34170;54.364;18.582;2022-08-04T06:02:05;10.23;;;3.67;;
48363;SDS011;34170;54.364;18.582;2022-08-04T06:04:39;9.73;;;3.92;;
48363;SDS011;34170;54.364;18.582;2022-08-04T06:07:09;9.85;;;3.75;;
48363;SDS011;34170;54.364;18.582;2022-08-04T06:09:37;12.70;;;4.32;;
48363;SDS011;34170;54.364;18.582;2022-08-04T06:12:06;5.47;;;3.70;;
48363;SDS011;34170;54.364;18.582;2022-08-04T06:14:39;8.98;;;4.38;;
48363;SDS011;34170;54.364;18.582;2022-08-04T06:17:12;7.38;;;3.70;;
48363;SDS011;34170;54.364;18.582;2022-08-04T06:20:07;9.27;;;3.97;;
48363;SDS011;34170;54.364;18.582;2022-08-04T06:22:52;7.03;;;4.43;;
48363;SDS011;34170;54.364;18.582;2022-08-04T06:25:23;8.82;;;4.47;;
48363;SDS011;34170;54.364;18.582;2022-08-04T06:27:54;7.82;;;3.83;;
48363;SDS011;34170;54.364;18.582;2022-08-04T06:30:22;12.85;;;4.88;;
48363;SDS011;34170;54.364;18.582;2022-08-04T06:35:31;9.07;;;3.83;;
48363;SDS011;34170;54.364;18.582;2022-08-04T06:37:59;13.07;;;4.57;;
48363;SDS011;34170;54.364;18.582;2022-08-04T06:40:28;10.32;;;4.13;;
48363;SDS011;34170;54.364;18.582;2022-08-04T06:43:00;12.48;;;5.10;;
48363;SDS011;34170;54.364;18.582;2022-08-04T06:50:29;9.40;;;3.97;;
48363;SDS011;34170;54.364;18.582;2022-08-04T06:53:18;8.75;;;4.20;;
48363;SDS011;34170;54.364;18.582;2022-08-04T06:55:46;6.97;;;4.22;;
48363;SDS011;34170;54.364;18.582;2022-08-04T06:58:15;9.13;;;3.65;;
48363;SDS011;34170;54.364;18.582;2022-08-04T07:00:46;9.10;;;4.25;;
48363;SDS011;34170;54.364;18.582;2022-08-04T07:03:15;10.53;;;4.57;;
48363;SDS011;34170;54.364;18.582;2022-08-04T07:05:47;11.60;;;4.23;;
48363;SDS011;34170;54.364;18.582;2022-08-04T07:08:17;11.15;;;4.78;;
48363;SDS011;34170;54.364;18.582;2022-08-04T07:10:45;7.55;;;4.35;;
48363;SDS011;34170;54.364;18.582;2022-08-04T07:13:13;12.73;;;4.28;;
48363;SDS011;34170;54.364;18.582;2022-08-04T07:15:43;9.75;;;3.75;;
48363;SDS011;34170;54.364;18.582;2022-08-04T07:18:12;8.55;;;4.47;;
48363;SDS011;34170;54.364;18.582;2022-08-04T07:20:43;7.00;;;3.83;;
48363;SDS011;34170;54.364;18.582;2022-08-04T07:23:12;6.25;;;3.70;;
48363;SDS011;34170;54.364;18.582;2022-08-04T07:25:44;6.75;;;3.90;;
48363;SDS011;34170;54.364;18.582;2022-08-04T07:28:38;6.22;;;3.97;;
48363;SDS011;34170;54.364;18.582;2022-08-04T07:31:08;7.80;;;4.10;;
48363;SDS011;34170;54.364;18.582;2022-08-04T07:33:58;7.05;;;3.88;;
48363;SDS011;34170;54.364;18.582;2022-08-04T07:36:51;5.97;;;3.47;;
48363;SDS011;34170;54.364;18.582;2022-08-04T07:39:23;7.25;;;3.50;;
48363;SDS011;34170;54.364;18.582;2022-08-04T07:41:55;10.07;;;4.03;;
48363;SDS011;34170;54.364;18.582;2022-08-04T07:44:24;5.70;;;3.45;;
48363;SDS011;34170;54.364;18.582;2022-08-04T07:46:52;7.45;;;3.30;;
48363;SDS011;34170;54.364;18.582;2022-08-04T07:49:19;5.55;;;3.42;;
48363;SDS011;34170;54.364;18.582;2022-08-04T07:52:07;5.13;;;3.40;;
48363;SDS011;34170;54.364;18.582;2022-08-04T07:54:35;8.43;;;3.58;;
48363;SDS011;34170;54.364;18.582;2022-08-04T07:57:05;5.07;;;3.25;;
48363;SDS011;34170;54.364;18.582;2022-08-04T07:59:34;3.60;;;3.17;;
48363;SDS011;34170;54.364;18.582;2022-08-04T08:02:01;6.28;;;3.35;;
48363;SDS011;34170;54.364;18.582;2022-08-04T08:04:29;6.05;;;3.42;;
48363;SDS011;34170;54.364;18.582;2022-08-04T08:06:58;14.20;;;3.97;;
48363;SDS011;34170;54.364;18.582;2022-08-04T08:09:25;12.70;;;4.25;;
48363;SDS011;34170;54.364;18.582;2022-08-04T08:11:53;7.50;;;4.28;;
48363;SDS011;34170;54.364;18.582;2022-08-04T08:14:41;5.15;;;3.65;;
48363;SDS011;34170;54.364;18.582;2022-08-04T08:17:09;6.97;;;3.42;;
48363;SDS011;34170;54.364;18.582;2022-08-04T08:19:36;7.05;;;3.63;;
48363;SDS011;34170;54.364;18.582;2022-08-04T08:22:04;3.53;;;3.20;;
48363;SDS011;34170;54.364;18.582;2022-08-04T08:24:34;7.13;;;3.33;;
48363;SDS011;34170;54.364;18.582;2022-08-04T08:27:03;3.63;;;3.30;;
48363;SDS011;34170;54.364;18.582;2022-08-04T08:29:34;5.45;;;3.00;;
48363;SDS011;34170;54.364;18.582;2022-08-04T08:32:02;5.05;;;3.20;;
48363;SDS011;34170;54.364;18.582;2022-08-04T08:34:35;5.00;;;2.88;;
48363;SDS011;34170;54.364;18.582;2022-08-04T08:37:25;5.38;;;3.08;;
48363;SDS011;34170;54.364;18.582;2022-08-04T08:40:28;3.58;;;2.83;;
48363;SDS011;34170;54.364;18.582;2022-08-04T08:43:23;5.78;;;2.83;;
48363;SDS011;34170;54.364;18.582;2022-08-04T08:46:42;3.13;;;2.58;;
48363;SDS011;34170;54.364;18.582;2022-08-04T08:49:37;3.85;;;3.35;;
48363;SDS011;34170;54.364;18.582;2022-08-04T08:52:34;8.00;;;3.08;;
48363;SDS011;34170;54.364;18.582;2022-08-04T08:58:40;4.70;;;2.72;;
48363;SDS011;34170;54.364;18.582;2022-08-04T09:10:07;6.10;;;4.15;;
48363;SDS011;34170;54.364;18.582;2022-08-04T09:18:41;4.55;;;2.95;;
48363;SDS011;34170;54.364;18.582;2022-08-04T09:29:19;5.47;;;3.05;;
48363;SDS011;34170;54.364;18.582;2022-08-04T09:31:56;5.93;;;3.45;;
48363;SDS011;34170;54.364;18.582;2022-08-04T09:37:22;6.35;;;3.80;;
48363;SDS011;34170;54.364;18.582;2022-08-04T09:40:04;6.47;;;3.17;;
48363;SDS011;34170;54.364;18.582;2022-08-04T09:42:45;4.28;;;3.08;;
48363;SDS011;34170;54.364;18.582;2022-08-04T09:48:18;4.90;;;3.22;;
48363;SDS011;34170;54.364;18.582;2022-08-04T09:50:58;3.45;;;2.47;;
48363;SDS011;34170;54.364;18.582;2022-08-04T09:53:37;4.97;;;3.20;;
48363;SDS011;34170;54.364;18.582;2022-08-04T09:56:23;5.30;;;3.08;;
48363;SDS011;34170;54.364;18.582;2022-08-04T10:01:39;3.50;;;2.63;;
48363;SDS011;34170;54.364;18.582;2022-08-04T10:04:11;3.60;;;3.00;;
48363;SDS011;34170;54.364;18.582;2022-08-04T10:06:49;7.03;;;3.67;;
48363;SDS011;34170;54.364;18.582;2022-08-04T10:18:14;7.20;;;3.63;;
48363;SDS011;34170;54.364;18.582;2022-08-04T10:23:45;4.28;;;2.78;;
48363;SDS011;34170;54.364;18.582;2022-08-04T10:26:32;7.80;;;2.80;;
48363;SDS011;34170;54.364;18.582;2022-08-04T10:29:18;4.43;;;2.83;;
48363;SDS011;34170;54.364;18.582;2022-08-04T10:31:59;4.28;;;2.65;;
48363;SDS011;34170;54.364;18.582;2022-08-04T10:34:37;4.60;;;2.45;;
48363;SDS011;34170;54.364;18.582;2022-08-04T10:37:14;6.07;;;2.67;;
48363;SDS011;34170;54.364;18.582;2022-08-04T10:43:10;3.95;;;2.40;;
48363;SDS011;34170;54.364;18.582;2022-08-04T10:45:51;4.57;;;3.95;;
48363;SDS011;34170;54.364;18.582;2022-08-04T10:53:43;4.88;;;3.40;;
48363;SDS011;34170;54.364;18.582;2022-08-04T10:56:21;3.15;;;2.72;;
48363;SDS011;34170;54.364;18.582;2022-08-04T10:58:57;3.30;;;3.00;;
48363;SDS011;34170;54.364;18.582;2022-08-04T11:01:34;2.67;;;2.47;;
48363;SDS011;34170;54.364;18.582;2022-08-04T11:04:40;3.63;;;2.70;;
48363;SDS011;34170;54.364;18.582;2022-08-04T11:07:13;5.25;;;2.55;;
48363;SDS011;34170;54.364;18.582;2022-08-04T11:09:42;3.33;;;2.70;;
48363;SDS011;34170;54.364;18.582;2022-08-04T11:14:51;4.20;;;3.30;;
48363;SDS011;34170;54.364;18.582;2022-08-04T11:17:28;5.13;;;3.10;;
48363;SDS011;34170;54.364;18.582;2022-08-04T11:20:11;5.43;;;2.60;;
48363;SDS011;34170;54.364;18.582;2022-08-04T11:23:14;3.37;;;3.07;;
48363;SDS011;34170;54.364;18.582;2022-08-04T11:28:35;6.00;;;3.58;;
48363;SDS011;34170;54.364;18.582;2022-08-04T11:31:10;5.15;;;3.38;;
48363;SDS011;34170;54.364;18.582;2022-08-04T11:38:55;5.45;;;3.30;;
48363;SDS011;34170;54.364;18.582;2022-08-04T11:44:31;5.85;;;3.63;;
48363;SDS011;34170;54.364;18.582;2022-08-04T11:47:04;4.05;;;3.65;;
48363;SDS011;34170;54.364;18.582;2022-08-04T11:49:39;4.18;;;3.20;;
48363;SDS011;34170;54.364;18.582;2022-08-04T11:52:25;10.68;;;4.20;;
48363;SDS011;34170;54.364;18.582;2022-08-04T11:54:54;3.92;;;3.30;;
48363;SDS011;34170;54.364;18.582;2022-08-04T11:57:23;5.90;;;3.90;;
48363;SDS011;34170;54.364;18.582;2022-08-04T12:00:06;8.80;;;3.85;;
48363;SDS011;34170;54.364;18.582;2022-08-04T12:05:17;5.95;;;3.55;;
48363;SDS011;34170;54.364;18.582;2022-08-04T12:10:41;6.80;;;3.88;;
48363;SDS011;34170;54.364;18.582;2022-08-04T12:13:30;7.07;;;3.92;;
48363;SDS011;34170;54.364;18.582;2022-08-04T12:16:14;8.02;;;3.70;;
48363;SDS011;34170;54.364;18.582;2022-08-04T12:18:46;6.45;;;3.22;;
48363;SDS011;34170;54.364;18.582;2022-08-04T12:21:24;3.85;;;3.50;;
48363;SDS011;34170;54.364;18.582;2022-08-04T12:24:02;7.28;;;3.63;;
48363;SDS011;34170;54.364;18.582;2022-08-04T12:26:35;5.00;;;3.17;;
48363;SDS011;34170;54.364;18.582;2022-08-04T12:29:08;3.83;;;3.45;;
48363;SDS011;34170;54.364;18.582;2022-08-04T12:31:48;5.13;;;3.25;;
48363;SDS011;34170;54.364;18.582;2022-08-04T12:40:17;4.10;;;3.22;;
48363;SDS011;34170;54.364;18.582;2022-08-04T12:43:01;6.57;;;3.40;;
48363;SDS011;34170;54.364;18.582;2022-08-04T12:45:49;7.43;;;3.08;;
48363;SDS011;34170;54.364;18.582;2022-08-04T12:48:20;5.25;;;3.35;;
48363;SDS011;34170;54.364;18.582;2022-08-04T12:50:53;6.28;;;3.53;;
48363;SDS011;34170;54.364;18.582;2022-08-04T12:53:26;6.93;;;3.35;;
48363;SDS011;34170;54.364;18.582;2022-08-04T12:55:58;4.70;;;3.20;;
48363;SDS011;34170;54.364;18.582;2022-08-04T12:58:29;7.27;;;3.40;;
48363;SDS011;34170;54.364;18.582;2022-08-04T13:01:19;5.40;;;3.45;;
48363;SDS011;34170;54.364;18.582;2022-08-04T13:04:10;4.25;;;3.20;;
48363;SDS011;34170;54.364;18.582;2022-08-04T13:06:41;7.40;;;3.50;;
48363;SDS011;34170;54.364;18.582;2022-08-04T13:09:17;6.63;;;3.85;;
48363;SDS011;34170;54.364;18.582;2022-08-04T13:11:48;5.75;;;3.50;;
48363;SDS011;34170;54.364;18.582;2022-08-04T13:14:19;4.65;;;3.20;;
48363;SDS011;34170;54.364;18.582;2022-08-04T13:16:57;4.50;;;3.72;;
48363;SDS011;34170;54.364;18.582;2022-08-04T13:19:28;6.38;;;4.45;;
48363;SDS011;34170;54.364;18.582;2022-08-04T13:22:07;6.07;;;3.08;;
48363;SDS011;34170;54.364;18.582;2022-08-04T13:24:36;4.93;;;3.88;;
48363;SDS011;34170;54.364;18.582;2022-08-04T13:27:23;7.55;;;3.63;;
48363;SDS011;34170;54.364;18.582;2022-08-04T13:29:54;6.22;;;3.92;;
48363;SDS011;34170;54.364;18.582;2022-08-04T13:32:29;6.40;;;3.72;;
48363;SDS011;34170;54.364;18.582;2022-08-04T13:34:59;7.43;;;3.63;;
48363;SDS011;34170;54.364;18.582;2022-08-04T13:37:32;4.90;;;3.97;;
48363;SDS011;34170;54.364;18.582;2022-08-04T13:40:03;5.70;;;4.13;;
48363;SDS011;34170;54.364;18.582;2022-08-04T13:42:32;6.22;;;3.97;;
48363;SDS011;34170;54.364;18.582;2022-08-04T13:45:02;4.07;;;3.67;;
48363;SDS011;34170;54.364;18.582;2022-08-04T13:47:33;6.75;;;3.70;;
48363;SDS011;34170;54.364;18.582;2022-08-04T13:52:59;7.28;;;3.85;;
48363;SDS011;34170;54.364;18.582;2022-08-04T14:00:42;4.97;;;3.83;;
48363;SDS011;34170;54.364;18.582;2022-08-04T14:03:14;6.35;;;3.55;;
48363;SDS011;34170;54.364;18.582;2022-08-04T14:06:07;5.20;;;3.60;;
48363;SDS011;34170;54.364;18.582;2022-08-04T14:11:37;4.75;;;3.60;;
48363;SDS011;34170;54.364;18.582;2022-08-04T14:14:30;5.50;;;3.90;;
48363;SDS011;34170;54.364;18.582;2022-08-04T14:22:32;5.70;;;3.78;;
48363;SDS011;34170;54.364;18.582;2022-08-04T14:25:09;5.93;;;3.67;;
48363;SDS011;34170;54.364;18.582;2022-08-04T14:27:46;4.00;;;3.37;;
48363;SDS011;34170;54.364;18.582;2022-08-04T14:30:24;6.30;;;3.40;;
48363;SDS011;34170;54.364;18.582;2022-08-04T14:33:03;6.45;;;3.83;;
48363;SDS011;34170;54.364;18.582;2022-08-04T14:35:56;4.18;;;3.10;;
48363;SDS011;34170;54.364;18.582;2022-08-04T14:38:43;4.43;;;3.67;;
48363;SDS011;34170;54.364;18.582;2022-08-04T14:41:11;6.53;;;3.45;;
48363;SDS011;34170;54.364;18.582;2022-08-04T14:43:40;8.00;;;3.70;;
48363;SDS011;34170;54.364;18.582;2022-08-04T14:46:12;5.47;;;4.28;;
48363;SDS011;34170;54.364;18.582;2022-08-04T14:48:58;7.32;;;4.20;;
48363;SDS011;34170;54.364;18.582;2022-08-04T14:51:27;5.15;;;3.60;;
48363;SDS011;34170;54.364;18.582;2022-08-04T14:54:03;4.38;;;3.53;;
48363;SDS011;34170;54.364;18.582;2022-08-04T14:56:38;6.55;;;4.18;;
48363;SDS011;34170;54.364;18.582;2022-08-04T14:59:13;7.45;;;3.60;;
48363;SDS011;34170;54.364;18.582;2022-08-04T15:01:41;4.97;;;3.72;;
48363;SDS011;34170;54.364;18.582;2022-08-04T15:04:25;7.07;;;3.85;;
48363;SDS011;34170;54.364;18.582;2022-08-04T15:06:53;8.55;;;4.25;;
48363;SDS011;34170;54.364;18.582;2022-08-04T15:09:20;4.68;;;3.72;;
48363;SDS011;34170;54.364;18.582;2022-08-04T15:11:48;6.20;;;3.85;;
48363;SDS011;34170;54.364;18.582;2022-08-04T15:14:16;3.80;;;3.50;;
48363;SDS011;34170;54.364;18.582;2022-08-04T15:17:03;5.03;;;3.42;;
48363;SDS011;34170;54.364;18.582;2022-08-04T15:19:53;6.07;;;3.95;;
48363;SDS011;34170;54.364;18.582;2022-08-04T15:22:22;6.45;;;3.72;;
48363;SDS011;34170;54.364;18.582;2022-08-04T15:24:49;5.18;;;3.95;;
48363;SDS011;34170;54.364;18.582;2022-08-04T15:27:23;6.57;;;4.35;;
48363;SDS011;34170;54.364;18.582;2022-08-04T15:29:53;6.55;;;4.00;;
48363;SDS011;34170;54.364;18.582;2022-08-04T15:32:29;5.95;;;4.53;;
48363;SDS011;34170;54.364;18.582;2022-08-04T15:35:03;4.75;;;3.75;;
48363;SDS011;34170;54.364;18.582;2022-08-04T15:37:53;7.38;;;4.00;;
48363;SDS011;34170;54.364;18.582;2022-08-04T15:40:29;4.47;;;3.95;;
48363;SDS011;34170;54.364;18.582;2022-08-04T15:46:07;8.35;;;4.47;;
48363;SDS011;34170;54.364;18.582;2022-08-04T15:48:54;6.63;;;4.55;;
48363;SDS011;34170;54.364;18.582;2022-08-04T15:51:25;4.55;;;4.15;;
48363;SDS011;34170;54.364;18.582;2022-08-04T15:58:57;9.02;;;4.63;;
48363;SDS011;34170;54.364;18.582;2022-08-04T16:01:25;11.00;;;3.85;;
48363;SDS011;34170;54.364;18.582;2022-08-04T16:03:53;5.75;;;4.03;;
48363;SDS011;34170;54.364;18.582;2022-08-04T16:08:56;11.50;;;4.40;;
48363;SDS011;34170;54.364;18.582;2022-08-04T16:14:06;8.02;;;4.40;;
48363;SDS011;34170;54.364;18.582;2022-08-04T16:19:09;6.07;;;4.05;;
48363;SDS011;34170;54.364;18.582;2022-08-04T16:21:46;4.93;;;3.70;;
48363;SDS011;34170;54.364;18.582;2022-08-04T16:26:44;6.50;;;4.15;;
48363;SDS011;34170;54.364;18.582;2022-08-04T16:34:36;8.77;;;4.78;;
48363;SDS011;34170;54.364;18.582;2022-08-04T16:37:17;8.43;;;4.82;;
48363;SDS011;34170;54.364;18.582;2022-08-04T16:39:46;5.80;;;4.75;;
48363;SDS011;34170;54.364;18.582;2022-08-04T16:50:19;7.47;;;4.75;;
48363;SDS011;34170;54.364;18.582;2022-08-04T16:52:48;7.57;;;4.85;;
48363;SDS011;34170;54.364;18.582;2022-08-04T16:55:21;8.80;;;4.45;;
48363;SDS011;34170;54.364;18.582;2022-08-04T16:57:51;6.13;;;4.28;;
48363;SDS011;34170;54.364;18.582;2022-08-04T17:00:27;5.95;;;4.63;;
48363;SDS011;34170;54.364;18.582;2022-08-04T17:02:57;4.57;;;4.18;;
48363;SDS011;34170;54.364;18.582;2022-08-04T17:05:27;7.65;;;5.00;;
48363;SDS011;34170;54.364;18.582;2022-08-04T17:08:06;6.32;;;4.40;;
48363;SDS011;34170;54.364;18.582;2022-08-04T17:10:54;11.15;;;4.35;;
48363;SDS011;34170;54.364;18.582;2022-08-04T17:16:13;7.13;;;4.95;;
48363;SDS011;34170;54.364;18.582;2022-08-04T17:18:45;6.72;;;4.88;;
48363;SDS011;34170;54.364;18.582;2022-08-04T17:21:16;8.90;;;4.95;;
48363;SDS011;34170;54.364;18.582;2022-08-04T17:23:46;5.57;;;4.88;;
48363;SDS011;34170;54.364;18.582;2022-08-04T17:26:37;9.15;;;4.80;;
48363;SDS011;34170;54.364;18.582;2022-08-04T17:29:10;5.90;;;4.63;;
48363;SDS011;34170;54.364;18.582;2022-08-04T17:31:45;5.15;;;4.65;;
48363;SDS011;34170;54.364;18.582;2022-08-04T17:34:14;7.13;;;4.90;;
48363;SDS011;34170;54.364;18.582;2022-08-04T17:36:46;8.65;;;5.20;;
48363;SDS011;34170;54.364;18.582;2022-08-04T17:39:15;8.07;;;5.30;;
48363;SDS011;34170;54.364;18.582;2022-08-04T17:41:47;6.22;;;4.85;;
48363;SDS011;34170;54.364;18.582;2022-08-04T17:44:21;6.45;;;4.85;;
48363;SDS011;34170;54.364;18.582;2022-08-04T17:47:17;6.55;;;5.13;;
48363;SDS011;34170;54.364;18.582;2022-08-04T17:49:45;7.82;;;5.20;;
48363;SDS011;34170;54.364;18.582;2022-08-04T17:52:19;6.40;;;5.45;;
48363;SDS011;34170;54.364;18.582;2022-08-04T17:55:07;6.65;;;5.35;;
48363;SDS011;34170;54.364;18.582;2022-08-04T17:57:46;6.90;;;5.47;;
48363;SDS011;34170;54.364;18.582;2022-08-04T18:00:18;8.23;;;5.35;;
48363;SDS011;34170;54.364;18.582;2022-08-04T18:02:52;10.40;;;6.60;;
48363;SDS011;34170;54.364;18.582;2022-08-04T18:05:26;7.80;;;5.60;;
48363;SDS011;34170;54.364;18.582;2022-08-04T18:08:16;7.03;;;5.60;;
48363;SDS011;34170;54.364;18.582;2022-08-04T18:11:03;8.68;;;5.53;;
48363;SDS011;34170;54.364;18.582;2022-08-04T18:13:31;6.47;;;5.88;;
48363;SDS011;34170;54.364;18.582;2022-08-04T18:16:09;5.95;;;4.88;;
48363;SDS011;34170;54.364;18.582;2022-08-04T18:19:08;10.15;;;5.57;;
48363;SDS011;34170;54.364;18.582;2022-08-04T18:21:37;8.52;;;5.35;;
48363;SDS011;34170;54.364;18.582;2022-08-04T18:24:24;8.55;;;5.57;;
48363;SDS011;34170;54.364;18.582;2022-08-04T18:27:02;7.00;;;5.28;;
48363;SDS011;34170;54.364;18.582;2022-08-04T18:29:32;5.73;;;5.13;;
48363;SDS011;34170;54.364;18.582;2022-08-04T18:32:06;7.55;;;5.10;;
48363;SDS011;34170;54.364;18.582;2022-08-04T18:34:35;10.02;;;5.65;;
48363;SDS011;34170;54.364;18.582;2022-08-04T18:37:20;9.15;;;5.70;;
48363;SDS011;34170;54.364;18.582;2022-08-04T18:40:08;7.65;;;5.38;;
48363;SDS011;34170;54.364;18.582;2022-08-04T18:42:57;7.78;;;4.78;;
48363;SDS011;34170;54.364;18.582;2022-08-04T18:45:26;9.07;;;5.78;;
48363;SDS011;34170;54.364;18.582;2022-08-04T18:48:01;5.65;;;5.05;;
48363;SDS011;34170;54.364;18.582;2022-08-04T18:50:49;8.40;;;5.60;;
48363;SDS011;34170;54.364;18.582;2022-08-04T18:53:36;9.98;;;5.35;;
48363;SDS011;34170;54.364;18.582;2022-08-04T18:56:10;6.78;;;5.53;;
48363;SDS011;34170;54.364;18.582;2022-08-04T18:58:56;8.73;;;6.00;;
48363;SDS011;34170;54.364;18.582;2022-08-04T19:01:25;12.40;;;6.95;;
48363;SDS011;34170;54.364;18.582;2022-08-04T19:04:14;6.28;;;5.78;;
48363;SDS011;34170;54.364;18.582;2022-08-04T19:07:02;8.65;;;6.07;;
48363;SDS011;34170;54.364;18.582;2022-08-04T19:09:50;7.70;;;5.68;;
48363;SDS011;34170;54.364;18.582;2022-08-04T19:12:23;10.48;;;6.05;;
48363;SDS011;34170;54.364;18.582;2022-08-04T19:14:54;8.88;;;6.15;;
48363;SDS011;34170;54.364;18.582;2022-08-04T19:20:12;13.85;;;6.15;;
48363;SDS011;34170;54.364;18.582;2022-08-04T19:22:51;8.55;;;5.40;;
48363;SDS011;34170;54.364;18.582;2022-08-04T19:25:40;10.82;;;6.57;;
48363;SDS011;34170;54.364;18.582;2022-08-04T19:28:28;11.98;;;6.70;;
48363;SDS011;34170;54.364;18.582;2022-08-04T19:31:06;11.80;;;6.40;;
48363;SDS011;34170;54.364;18.582;2022-08-04T19:33:35;8.13;;;6.53;;
48363;SDS011;34170;54.364;18.582;2022-08-04T19:36:23;9.85;;;6.20;;
48363;SDS011;34170;54.364;18.582;2022-08-04T19:41:26;9.05;;;6.72;;
48363;SDS011;34170;54.364;18.582;2022-08-04T19:43:57;13.35;;;6.80;;
48363;SDS011;34170;54.364;18.582;2022-08-04T19:46:24;10.85;;;6.32;;
48363;SDS011;34170;54.364;18.582;2022-08-04T19:48:54;8.37;;;6.77;;
48363;SDS011;34170;54.364;18.582;2022-08-04T19:51:29;13.25;;;7.07;;
48363;SDS011;34170;54.364;18.582;2022-08-04T19:53:58;10.85;;;7.25;;
48363;SDS011;34170;54.364;18.582;2022-08-04T19:56:36;12.50;;;6.90;;